createdAt,value
2018-04-19T00:01:22.725Z,40.70
2018-04-19T00:03:51.230Z,40.70
2018-04-19T00:06:18.847Z,40.70
2018-04-19T00:08:46.468Z,40.60
2018-04-19T00:11:14.114Z,40.70
2018-04-19T00:13:41.697Z,40.70
2018-04-19T00:16:09.311Z,40.70
2018-04-19T00:18:36.917Z,40.70
2018-04-19T00:21:05.267Z,40.90
2018-04-19T00:23:32.921Z,40.80
2018-04-19T00:26:01.280Z,41.00
2018-04-19T00:28:28.855Z,41.00
2018-04-19T00:30:56.482Z,40.90
2018-04-19T00:33:24.069Z,40.90
2018-04-19T00:35:51.658Z,40.90
2018-04-19T00:38:19.242Z,40.80
2018-04-19T00:40:46.818Z,40.90
2018-04-19T00:43:15.968Z,40.90
2018-04-19T00:45:43.579Z,41.00
2018-04-19T00:48:11.203Z,41.00
2018-04-19T00:50:39.822Z,41.00
2018-04-19T00:53:09.203Z,41.00
2018-04-19T00:55:37.014Z,41.00
2018-04-19T00:58:04.601Z,41.10
2018-04-19T01:00:32.261Z,41.10
2018-04-19T01:02:59.838Z,41.10
2018-04-19T01:05:27.523Z,41.30
2018-04-19T01:07:55.916Z,41.30
2018-04-19T01:10:23.527Z,41.30
2018-04-19T01:12:51.092Z,41.30
2018-04-19T01:15:18.684Z,41.30
2018-04-19T01:17:47.225Z,41.30
2018-04-19T01:20:14.837Z,41.20
2018-04-19T01:22:42.422Z,41.20
2018-04-19T01:25:10.018Z,41.20
2018-04-19T01:27:38.666Z,41.20
2018-04-19T01:30:06.326Z,41.10
2018-04-19T01:32:33.898Z,41.20
2018-04-19T01:35:01.588Z,41.30
2018-04-19T01:37:29.178Z,41.20
2018-04-19T01:39:56.778Z,41.20
2018-04-19T01:42:25.134Z,41.30
2018-04-19T01:44:52.747Z,41.30
2018-04-19T01:47:20.381Z,41.40
2018-04-19T01:49:48.012Z,41.40
2018-04-19T01:52:15.619Z,41.40
2018-04-19T01:54:43.206Z,41.40
2018-04-19T01:57:10.813Z,41.50
2018-04-19T01:59:39.389Z,41.50
2018-04-19T02:02:07.769Z,41.60
2018-04-19T02:04:36.130Z,41.60
2018-04-19T02:07:03.736Z,41.50
2018-04-19T02:09:31.313Z,41.60
2018-04-19T02:11:59.756Z,41.80
2018-04-19T02:14:27.330Z,41.80
2018-04-19T02:16:55.965Z,41.90
2018-04-19T02:19:23.586Z,42.00
2018-04-19T02:21:51.206Z,42.00
2018-04-19T02:24:18.784Z,42.10
2018-04-19T02:26:46.381Z,42.30
2018-04-19T02:29:14.770Z,42.50
2018-04-19T02:31:42.418Z,42.40
2018-04-19T02:34:10.026Z,42.50
2018-04-19T02:36:38.404Z,42.70
2018-04-19T02:39:07.735Z,42.80
2018-04-19T02:41:36.120Z,42.90
2018-04-19T02:44:04.468Z,43.00
2018-04-19T02:46:32.088Z,42.90
2018-04-19T02:48:59.710Z,43.10
2018-04-19T02:51:27.339Z,43.20
2018-04-19T02:53:54.910Z,43.20
2018-04-19T02:56:23.303Z,43.20
2018-04-19T02:58:51.530Z,43.20
2018-04-19T03:01:19.136Z,43.30
2018-04-19T03:03:46.722Z,43.40
2018-04-19T03:06:15.091Z,43.60
2018-04-19T03:08:42.751Z,43.60
2018-04-19T03:11:11.147Z,43.70
2018-04-19T03:13:39.349Z,43.70
2018-04-19T03:16:06.969Z,43.80
2018-04-19T03:18:34.600Z,44.00
2018-04-19T03:21:02.165Z,44.10
2018-04-19T03:23:30.537Z,44.40
2018-04-19T03:25:58.914Z,44.60
2018-04-19T03:28:26.586Z,44.50
2018-04-19T03:30:54.179Z,44.60
2018-04-19T03:33:21.818Z,44.60
2018-04-19T03:35:49.398Z,44.80
2018-04-19T03:38:17.009Z,45.00
2018-04-19T03:40:44.648Z,45.10
2018-04-19T03:43:12.230Z,45.30
2018-04-19T03:45:39.809Z,45.50
2018-04-19T03:48:07.426Z,45.50
2018-04-19T03:50:35.804Z,45.80
2018-04-19T03:53:03.461Z,45.70
2018-04-19T03:55:31.141Z,45.80
2018-04-19T03:57:58.767Z,46.40
2018-04-19T04:00:27.305Z,45.90
2018-04-19T04:02:54.922Z,46.00
2018-04-19T04:05:22.493Z,46.00
2018-04-19T04:07:50.173Z,46.00
2018-04-19T04:10:18.840Z,46.00
2018-04-19T04:12:46.449Z,46.10
2018-04-19T04:15:14.055Z,46.10
2018-04-19T04:17:53.563Z,46.10
2018-04-19T04:20:33.154Z,46.20
2018-04-19T04:26:10.518Z,46.40
2018-04-19T04:28:38.256Z,46.30
2018-04-19T04:31:05.979Z,46.40
2018-04-19T04:33:33.577Z,46.50
2018-04-19T04:36:01.938Z,46.70
2018-04-19T04:38:30.408Z,46.80
2018-04-19T04:40:58.024Z,46.80
2018-04-19T04:43:26.361Z,46.80
2018-04-19T04:45:53.962Z,46.70
2018-04-19T04:48:21.641Z,46.80
2018-04-19T04:50:50.156Z,46.90
2018-04-19T04:53:18.522Z,47.10
2018-04-19T04:55:46.117Z,47.00
2018-04-19T04:58:14.490Z,47.20
2018-04-19T05:00:42.110Z,47.20
2018-04-19T05:03:09.684Z,47.10
2018-04-19T05:05:37.432Z,47.20
2018-04-19T05:08:05.068Z,47.10
2018-04-19T05:10:32.686Z,47.10
2018-04-19T05:13:00.310Z,47.10
2018-04-19T05:15:27.932Z,47.10
2018-04-19T05:17:56.319Z,47.40
2018-04-19T05:20:24.012Z,47.20
2018-04-19T05:22:51.617Z,47.30
2018-04-19T05:25:19.664Z,47.40
2018-04-19T05:27:47.250Z,47.50
2018-04-19T05:30:14.915Z,47.60
2018-04-19T05:32:42.488Z,47.60
2018-04-19T05:35:10.091Z,47.90
2018-04-19T05:37:38.174Z,47.70
2018-04-19T05:40:06.539Z,47.80
2018-04-19T05:42:34.256Z,47.70
2018-04-19T05:45:01.863Z,47.70
2018-04-19T05:47:30.202Z,47.70
2018-04-19T05:49:57.833Z,47.70
2018-04-19T05:52:27.290Z,48.20
2018-04-19T05:54:54.885Z,48.20
2018-04-19T05:57:22.462Z,48.20
2018-04-19T05:59:50.119Z,47.90
2018-04-19T06:02:17.722Z,47.90
2018-04-19T06:04:45.334Z,47.90
2018-04-19T06:07:13.485Z,48.10
2018-04-19T06:09:41.870Z,48.30
2018-04-19T06:12:09.460Z,48.60
2018-04-19T06:14:38.174Z,49.90
2018-04-19T06:17:05.777Z,49.90
2018-04-19T06:19:34.175Z,51.40
2018-04-19T06:22:01.788Z,51.90
2018-04-19T06:24:29.406Z,51.70
2018-04-19T06:26:57.041Z,52.10
2018-04-19T06:29:25.471Z,51.70
2018-04-19T06:31:53.077Z,51.70
2018-04-19T06:34:21.290Z,51.50
2018-04-19T06:36:49.638Z,51.10
2018-04-19T06:39:17.238Z,51.40
2018-04-19T06:41:44.901Z,51.30
2018-04-19T06:44:12.552Z,51.10
2018-04-19T06:46:40.156Z,51.00
2018-04-19T06:49:07.768Z,51.00
2018-04-19T06:51:35.357Z,50.90
2018-04-19T06:54:03.048Z,50.70
2018-04-19T06:56:30.668Z,50.50
2018-04-19T06:58:59.212Z,50.50
2018-04-19T07:01:27.656Z,50.60
2018-04-19T07:03:56.084Z,50.70
2018-04-19T07:06:23.721Z,50.70
2018-04-19T07:08:52.129Z,51.20
2018-04-19T07:11:19.732Z,51.10
2018-04-19T07:13:47.337Z,50.70
2018-04-19T07:19:16.381Z,50.60
2018-04-19T07:21:44.224Z,50.00
2018-04-19T07:24:12.845Z,49.80
2018-04-19T07:26:40.710Z,50.00
2018-04-19T07:29:08.366Z,50.70
2018-04-19T07:31:35.988Z,51.00
2018-04-19T07:34:03.781Z,51.30
2018-04-19T07:36:32.830Z,51.60
2018-04-19T07:39:00.413Z,51.60
2018-04-19T07:41:28.076Z,51.80
2018-04-19T07:43:55.850Z,51.80
2018-04-19T07:46:24.007Z,51.60
2018-04-19T07:48:52.349Z,51.90
2018-04-19T07:51:19.939Z,51.80
2018-04-19T07:53:47.504Z,51.60
2018-04-19T07:56:15.106Z,51.50
2018-04-19T07:58:43.130Z,51.60
2018-04-19T08:01:11.634Z,51.20
2018-04-19T08:03:39.507Z,51.20
2018-04-19T08:06:07.097Z,51.20
2018-04-19T08:08:34.747Z,51.00
2018-04-19T08:11:03.145Z,51.00
2018-04-19T08:13:30.749Z,50.90
2018-04-19T08:15:58.361Z,50.70
2018-04-19T08:18:26.732Z,50.60
2018-04-19T08:20:55.118Z,50.00
2018-04-19T08:23:22.715Z,49.90
2018-04-19T08:25:53.080Z,49.20
2018-04-19T08:28:20.629Z,48.70
2018-04-19T08:30:50.537Z,48.80
2018-04-19T08:33:18.253Z,48.60
2018-04-19T08:35:45.948Z,48.10
2018-04-19T08:38:13.642Z,47.50
2018-04-19T08:40:41.353Z,47.10
2018-04-19T08:43:09.217Z,47.10
2018-04-19T08:45:36.961Z,47.10
2018-04-19T08:48:04.550Z,46.70
2018-04-19T08:50:32.267Z,46.30
2018-04-19T08:53:01.227Z,46.00
2018-04-19T08:55:30.267Z,45.90
2018-04-19T08:57:58.708Z,45.90
2018-04-19T09:00:26.787Z,45.80
2018-04-19T09:02:54.640Z,45.30
2018-04-19T09:05:22.866Z,44.90
2018-04-19T09:07:51.099Z,45.50
2018-04-19T09:10:18.803Z,44.40
2018-04-19T09:12:48.068Z,43.60
2018-04-19T09:15:16.688Z,43.60
2018-04-19T09:17:45.066Z,43.40
2018-04-19T09:20:13.309Z,43.20
2018-04-19T09:22:41.039Z,42.30
2018-04-19T09:25:08.992Z,42.60
2018-04-19T09:27:37.084Z,42.00
2018-04-19T09:30:04.692Z,42.00
2018-04-19T09:32:32.694Z,42.00
2018-04-19T09:35:00.379Z,42.10
2018-04-19T09:37:28.868Z,41.70
2018-04-19T09:39:56.497Z,41.70
2018-04-19T09:42:24.250Z,40.90
2018-04-19T09:44:51.860Z,41.70
2018-04-19T09:47:19.512Z,40.80
2018-04-19T09:49:47.173Z,41.10
2018-04-19T09:52:14.736Z,41.10
2018-04-19T09:54:42.382Z,41.20
2018-04-19T09:57:10.101Z,41.50
2018-04-19T09:59:37.784Z,41.10
2018-04-19T10:02:06.452Z,40.80
2018-04-19T10:04:34.681Z,41.10
2018-04-19T10:07:02.626Z,40.80
2018-04-19T10:09:30.342Z,40.60
2018-04-19T10:11:57.953Z,40.40
2018-04-19T10:14:26.038Z,40.50
2018-04-19T10:16:53.677Z,39.60
2018-04-19T10:19:21.292Z,39.40
2018-04-19T10:21:49.022Z,40.10
2018-04-19T10:24:26.581Z,40.30
2018-04-19T10:26:54.812Z,40.20
2018-04-19T10:29:22.683Z,39.30
2018-04-19T10:31:51.141Z,38.30
2018-04-19T10:34:20.349Z,38.60
2018-04-19T10:36:47.931Z,38.50
2018-04-19T10:39:16.966Z,39.10
2018-04-19T10:41:44.588Z,39.70
2018-04-19T10:44:12.235Z,38.50
2018-04-19T10:46:40.676Z,39.10
2018-04-19T10:49:08.336Z,38.60
2018-04-19T10:51:36.914Z,37.40
2018-04-19T10:54:05.301Z,37.30
2018-04-19T10:56:32.884Z,37.20
2018-04-19T10:59:01.274Z,38.30
2018-04-19T11:01:29.640Z,36.70
2018-04-19T11:03:57.237Z,36.70
2018-04-19T11:06:25.513Z,36.50
2018-04-19T11:08:53.165Z,37.00
2018-04-19T11:11:20.727Z,36.30
2018-04-19T11:13:48.331Z,35.40
2018-04-19T11:16:15.972Z,35.00
2018-04-19T11:18:43.545Z,34.80
2018-04-19T11:21:11.120Z,34.50
2018-04-19T11:23:39.591Z,35.50
2018-04-19T11:26:07.253Z,35.30
2018-04-19T11:28:35.576Z,34.20
2018-04-19T11:31:03.172Z,34.10
2018-04-19T11:33:30.817Z,34.10
2018-04-19T11:35:58.441Z,33.70
2018-04-19T11:38:26.788Z,33.50
2018-04-19T11:40:54.396Z,33.40
2018-04-19T11:43:22.170Z,32.70
2018-04-19T11:45:49.860Z,32.40
2018-04-19T11:48:17.539Z,32.60
2018-04-19T11:50:45.164Z,32.50
2018-04-19T11:53:12.933Z,32.30
2018-04-19T11:55:42.479Z,31.50
2018-04-19T11:58:11.686Z,30.50
2018-04-19T12:00:39.321Z,30.30
2018-04-19T12:03:08.138Z,30.70
2018-04-19T12:05:35.823Z,30.90
2018-04-19T12:08:03.544Z,31.10
2018-04-19T12:10:31.223Z,31.20
2018-04-19T12:12:59.711Z,31.50
2018-04-19T12:15:27.405Z,31.50
2018-04-19T12:17:55.044Z,31.10
2018-04-19T12:20:22.620Z,30.20
2018-04-19T12:22:50.882Z,30.90
2018-04-19T12:25:18.534Z,30.30
2018-04-19T12:27:46.150Z,31.30
2018-04-19T12:30:13.752Z,31.30
2018-04-19T12:32:42.739Z,31.70
2018-04-19T12:35:10.333Z,31.60
2018-04-19T12:37:39.137Z,30.50
2018-04-19T12:40:06.736Z,30.50
2018-04-19T12:42:34.979Z,30.10
2018-04-19T12:45:03.338Z,30.90
2018-04-19T12:47:30.946Z,30.80
2018-04-19T12:49:59.293Z,30.90
2018-04-19T12:52:26.926Z,30.90
2018-04-19T12:54:55.304Z,30.50
2018-04-19T12:57:22.913Z,30.50
2018-04-19T12:59:50.705Z,29.80
2018-04-19T13:02:18.506Z,30.50
2018-04-19T13:04:46.681Z,30.30
2018-04-19T13:07:14.324Z,30.00
2018-04-19T13:09:41.973Z,29.60
2018-04-19T13:12:10.385Z,29.60
2018-04-19T13:14:38.067Z,29.50
2018-04-19T13:17:05.642Z,29.90
2018-04-19T13:19:33.277Z,30.00
2018-04-19T13:22:01.712Z,30.20
2018-04-19T13:24:31.231Z,30.10
2018-04-19T13:26:58.833Z,30.00
2018-04-19T13:29:27.371Z,29.50
2018-04-19T13:31:55.026Z,29.00
2018-04-19T13:34:23.456Z,29.20
2018-04-19T13:36:51.389Z,29.10
2018-04-19T13:39:19.817Z,29.40
2018-04-19T13:41:48.277Z,29.50
2018-04-19T13:44:15.915Z,29.40
2018-04-19T13:46:43.498Z,29.60
2018-04-19T13:49:11.852Z,29.20
2018-04-19T13:51:40.225Z,28.90
2018-04-19T13:54:09.845Z,29.40
2018-04-19T13:56:41.356Z,29.40
2018-04-19T13:59:09.233Z,28.90
2018-04-19T14:01:37.185Z,28.30
2018-04-19T14:04:05.278Z,28.70
2018-04-19T14:06:32.880Z,27.90
2018-04-19T14:09:00.481Z,28.20
2018-04-19T14:11:28.165Z,27.80
2018-04-19T14:13:55.795Z,27.50
2018-04-19T14:16:23.425Z,27.70
2018-04-19T14:18:51.802Z,27.60
2018-04-19T14:21:19.501Z,27.50
2018-04-19T14:23:47.888Z,27.60
2018-04-19T14:26:16.295Z,28.10
2018-04-19T14:28:43.926Z,28.10
2018-04-19T14:31:11.633Z,27.10
2018-04-19T14:33:39.274Z,27.20
2018-04-19T14:36:08.098Z,27.40
2018-04-19T14:38:36.451Z,27.90
2018-04-19T14:41:04.710Z,27.90
2018-04-19T14:43:32.282Z,27.30
2018-04-19T14:45:59.951Z,27.30
2018-04-19T14:48:27.566Z,27.30
2018-04-19T14:50:56.903Z,27.70
2018-04-19T14:53:25.306Z,26.80
2018-04-19T14:55:53.726Z,26.60
2018-04-19T14:58:21.369Z,26.50
2018-04-19T15:00:49.973Z,26.90
2018-04-19T15:03:18.354Z,26.70
2018-04-19T15:05:46.708Z,26.70
2018-04-19T15:08:14.314Z,26.60
2018-04-19T15:10:43.861Z,27.10
2018-04-19T15:13:12.838Z,26.70
2018-04-19T15:15:43.458Z,26.70
2018-04-19T15:18:14.247Z,26.70
2018-04-19T15:20:41.850Z,26.70
2018-04-19T15:23:09.517Z,26.10
2018-04-19T15:25:37.162Z,26.10
2018-04-19T15:28:04.777Z,26.30
2018-04-19T15:30:32.496Z,26.10
2018-04-19T15:33:00.263Z,26.50
2018-04-19T15:35:28.618Z,25.90
2018-04-19T15:37:56.192Z,25.90
2018-04-19T15:40:24.916Z,26.50
2018-04-19T15:42:53.249Z,26.50
2018-04-19T15:45:21.581Z,26.40
2018-04-19T15:47:49.220Z,26.30
2018-04-19T15:50:17.569Z,25.60
2018-04-19T15:52:45.298Z,25.50
2018-04-19T15:55:13.712Z,26.00
2018-04-19T15:57:41.367Z,25.90
2018-04-19T16:00:09.023Z,26.00
2018-04-19T16:02:37.655Z,26.10
2018-04-19T16:05:06.009Z,25.80
2018-04-19T16:07:34.433Z,25.80
2018-04-19T16:10:02.893Z,25.70
2018-04-19T16:12:30.546Z,25.50
2018-04-19T16:14:58.130Z,25.80
2018-04-19T16:17:25.743Z,26.40
2018-04-19T16:19:53.361Z,26.60
2018-04-19T16:22:20.918Z,26.90
2018-04-19T16:24:48.501Z,26.90
2018-04-19T16:27:16.152Z,26.60
2018-04-19T16:29:43.839Z,26.90
2018-04-19T16:32:11.470Z,27.30
2018-04-19T16:34:41.145Z,26.80
2018-04-19T16:37:08.829Z,26.40
2018-04-19T16:39:38.176Z,26.40
2018-04-19T16:42:05.891Z,26.10
2018-04-19T16:44:33.522Z,26.70
2018-04-19T16:47:01.901Z,26.50
2018-04-19T16:49:29.522Z,26.50
2018-04-19T16:51:57.149Z,26.80
2018-04-19T16:54:26.402Z,27.30
2018-04-19T16:56:54.697Z,27.20
2018-04-19T16:59:22.300Z,26.90
2018-04-19T17:01:50.514Z,27.00
2018-04-19T17:04:18.883Z,27.10
2018-04-19T17:06:47.364Z,27.10
2018-04-19T17:09:14.977Z,27.20
2018-04-19T17:11:42.604Z,26.80
2018-04-19T17:14:10.691Z,26.70
2018-04-19T17:16:38.647Z,26.70
2018-04-19T17:19:07.044Z,26.80
2018-04-19T17:21:34.641Z,26.70
2018-04-19T17:24:04.094Z,26.80
2018-04-19T17:26:32.525Z,27.00
2018-04-19T17:29:00.394Z,26.90
2018-04-19T17:31:27.977Z,26.80
2018-04-19T17:33:56.436Z,26.90
2018-04-19T17:36:26.688Z,26.80
2018-04-19T17:38:54.354Z,27.30
2018-04-19T17:41:23.717Z,27.20
2018-04-19T17:43:51.288Z,26.90
2018-04-19T17:46:19.782Z,27.20
2018-04-19T17:48:47.366Z,27.30
2018-04-19T17:51:15.498Z,27.30
2018-04-19T17:53:43.177Z,27.30
2018-04-19T17:56:10.777Z,27.50
2018-04-19T17:58:40.656Z,28.40
2018-04-19T18:01:08.285Z,28.40
2018-04-19T18:03:35.933Z,28.60
2018-04-19T18:06:03.559Z,28.70
2018-04-19T18:08:31.127Z,29.00
2018-04-19T18:10:58.889Z,29.20
2018-04-19T18:13:29.201Z,29.40
2018-04-19T18:15:58.463Z,29.80
2018-04-19T18:18:28.122Z,30.00
2018-04-19T18:20:55.842Z,29.90
2018-04-19T18:23:24.115Z,30.00
2018-04-19T18:25:52.417Z,30.10
2018-04-19T18:28:22.276Z,30.50
2018-04-19T18:30:50.792Z,30.80
2018-04-19T18:33:18.361Z,30.80
2018-04-19T18:35:45.988Z,31.20
2018-04-19T18:38:13.544Z,31.30
2018-04-19T18:40:41.100Z,31.20
2018-04-19T18:43:08.688Z,31.30
2018-04-19T18:45:36.318Z,31.20
2018-04-19T18:48:03.909Z,31.30
2018-04-19T18:50:31.484Z,31.50
2018-04-19T18:52:59.850Z,31.90
2018-04-19T18:55:27.452Z,31.80
2018-04-19T18:57:55.060Z,31.90
2018-04-19T19:00:22.611Z,31.70
2018-04-19T19:02:50.214Z,31.80
2018-04-19T19:05:17.904Z,31.90
2018-04-19T19:07:46.280Z,32.40
2018-04-19T19:10:14.783Z,32.80
2018-04-19T19:12:42.429Z,32.10
2018-04-19T19:18:22.809Z,32.30
2018-04-19T19:20:50.381Z,32.50
2018-04-19T19:23:18.004Z,32.60
2018-04-19T19:25:45.606Z,32.70
2018-04-19T19:28:13.168Z,32.90
2018-04-19T19:30:40.852Z,32.90
2018-04-19T19:33:08.420Z,32.90
2018-04-19T19:35:36.783Z,33.20
2018-04-19T19:38:05.949Z,33.40
2018-04-19T19:40:33.662Z,33.40
2018-04-19T19:43:01.288Z,33.50
2018-04-19T19:45:28.892Z,33.70
2018-04-19T19:47:56.529Z,33.80
2018-04-19T19:50:24.136Z,34.00
2018-04-19T19:52:51.770Z,33.70
2018-04-19T19:55:21.009Z,33.90
2018-04-19T19:57:49.429Z,34.10
2018-04-19T20:00:17.061Z,34.00
2018-04-19T20:02:44.791Z,34.20
2018-04-19T20:05:12.404Z,34.40
2018-04-19T20:07:40.018Z,34.40
2018-04-19T20:10:07.626Z,34.50
2018-04-19T20:12:36.033Z,34.70
2018-04-19T20:15:03.669Z,34.60
2018-04-19T20:17:31.291Z,34.70
2018-04-19T20:19:58.969Z,34.90
2018-04-19T20:22:26.613Z,34.90
2018-04-19T20:24:54.238Z,35.00
2018-04-19T20:27:21.872Z,35.20
2018-04-19T20:29:49.508Z,35.20
2018-04-19T20:32:17.165Z,35.40
2018-04-19T20:34:44.871Z,35.50
2018-04-19T20:37:12.513Z,35.60
2018-04-19T20:39:41.290Z,35.70
2018-04-19T20:42:08.922Z,35.80
2018-04-19T20:44:37.440Z,36.20
2018-04-19T20:47:05.192Z,36.20
2018-04-19T20:49:33.672Z,36.30
2018-04-19T20:52:01.439Z,36.30
2018-04-19T20:54:30.676Z,36.70
2018-04-19T20:56:58.269Z,36.50
2018-04-19T20:59:25.884Z,36.70
2018-04-19T21:01:53.529Z,36.80
2018-04-19T21:04:21.170Z,37.00
2018-04-19T21:06:49.545Z,37.20
2018-04-19T21:09:17.150Z,37.20
2018-04-19T21:11:44.732Z,37.40
2018-04-19T21:14:12.376Z,37.50
2018-04-19T21:16:40.030Z,37.60
2018-04-19T21:19:07.709Z,37.80
2018-04-19T21:21:35.284Z,37.90
2018-04-19T21:24:03.677Z,38.20
2018-04-19T21:26:32.260Z,38.10
2018-04-19T21:28:59.913Z,38.20
2018-04-19T21:31:27.512Z,38.80
2018-04-19T21:33:55.173Z,38.30
2018-04-19T21:36:29.978Z,38.50
2018-04-19T21:38:58.405Z,38.50
2018-04-19T21:41:27.591Z,38.70
2018-04-19T21:43:55.192Z,38.70
2018-04-19T21:46:22.790Z,38.80
2018-04-19T21:48:51.148Z,38.90
2018-04-19T21:51:19.409Z,38.90
2018-04-19T21:53:47.046Z,39.00
2018-04-19T21:56:15.027Z,39.10
2018-04-19T21:58:42.666Z,39.30
2018-04-19T22:01:10.364Z,39.30
2018-04-19T22:03:38.845Z,39.40
2018-04-19T22:06:06.437Z,39.50
2018-04-19T22:08:35.572Z,39.50
2018-04-19T22:11:04.093Z,40.40
2018-04-19T22:13:32.174Z,39.60
2018-04-19T22:15:59.890Z,39.70
2018-04-19T22:18:28.506Z,39.70
2018-04-19T22:20:56.108Z,39.80
2018-04-19T22:23:23.710Z,39.90
2018-04-19T22:25:51.390Z,39.90
2018-04-19T22:28:19.005Z,40.10
2018-04-19T22:30:46.639Z,40.20
2018-04-19T22:33:15.471Z,40.20
2018-04-19T22:35:43.157Z,40.20
2018-04-19T22:38:10.802Z,40.40
2018-04-19T22:40:38.652Z,40.50
2018-04-19T22:43:07.110Z,40.70
2018-04-19T22:45:34.720Z,40.70
2018-04-19T22:48:02.452Z,40.60
2018-04-19T22:50:30.849Z,40.80
2018-04-19T22:53:02.907Z,40.70
2018-04-19T22:55:31.542Z,40.70
2018-04-19T22:57:59.227Z,40.80
2018-04-19T23:00:30.232Z,40.70
2018-04-19T23:02:58.186Z,40.70
2018-04-19T23:05:25.913Z,40.80
2018-04-19T23:07:56.116Z,40.90
2018-04-19T23:10:24.308Z,40.90
2018-04-19T23:12:52.533Z,41.00
2018-04-19T23:15:20.756Z,41.10
2018-04-19T23:17:49.100Z,41.10
2018-04-19T23:20:17.301Z,41.20
2018-04-19T23:22:48.322Z,41.20
2018-04-19T23:25:16.763Z,41.20
2018-04-19T23:27:45.156Z,41.30
2018-04-19T23:30:14.595Z,41.30
2018-04-19T23:32:42.245Z,41.40
2018-04-19T23:35:09.976Z,41.70
2018-04-19T23:37:37.950Z,42.30
2018-04-19T23:40:06.885Z,42.60
2018-04-19T23:42:34.752Z,42.80
2018-04-19T23:45:02.499Z,43.00
2018-04-19T23:47:31.583Z,43.20
2018-04-19T23:49:59.258Z,43.20
2018-04-19T23:52:27.276Z,43.50
2018-04-19T23:54:54.924Z,43.60
2018-04-19T23:57:22.544Z,43.80
2018-04-19T23:59:50.302Z,44.00
